Time;durP1;ratioP1;P1;durP2;ratioP2;P2;SDS_P1;SDS_P2;PMS_P1;PMS_P2;Temp;Humidity;BMP_temperature;BMP_pressure;BME280_temperature;BME280_humidity;BME280_pressure;Samples;Min_cycle;Max_cycle;Signal;HPM_P1;HPM_P2
2022/04/27 00:01:41;;;;;;;4.30;1.67;;;;;;;14.46;61.00;95146.88;5093408;28;20040;-83
2022/04/27 00:04:06;;;;;;;7.28;2.65;;;;;;;13.59;61.57;95025.09;5073707;28;20565;-84
2022/04/27 00:06:32;;;;;;;5.35;1.92;;;;;;;13.85;61.39;95060.84;5063231;28;20033;-84
2022/04/27 00:08:58;;;;;;;3.80;2.15;;;;;;;14.03;61.66;95114.38;5084439;28;20046;-84
2022/04/27 00:11:23;;;;;;;5.70;2.10;;;;;;;14.29;60.72;95132.22;5074525;28;20184;-83
2022/04/27 00:13:49;;;;;;;7.55;2.33;;;;;;;14.13;61.18;95095.47;5092530;28;20039;-83
2022/04/27 00:16:14;;;;;;;4.40;1.98;;;;;;;14.35;61.07;95146.25;5080154;28;20038;-82
2022/04/27 00:18:40;;;;;;;4.78;1.85;;;;;;;13.36;62.01;95021.50;5082365;28;20037;-83
2022/04/27 00:21:05;;;;;;;7.53;2.28;;;;;;;14.63;61.20;95192.44;5096455;28;20043;-83
2022/04/27 00:23:32;;;;;;;7.10;2.03;;;;;;;14.02;61.22;95097.56;5098598;28;20368;-83
2022/04/27 00:25:58;;;;;;;3.83;2.17;;;;;;;14.32;61.15;95146.06;5081109;28;20129;-83
2022/04/27 00:28:24;;;;;;;9.98;2.28;;;;;;;14.59;61.29;95189.56;5059912;28;20082;-83
2022/04/27 00:30:49;;;;;;;3.38;2.13;;;;;;;14.65;61.46;95183.00;5079184;28;20032;-83
2022/04/27 00:33:15;;;;;;;5.43;2.03;;;;;;;13.67;62.19;95069.69;5091661;28;20039;-82
2022/04/27 00:35:41;;;;;;;3.65;2.08;;;;;;;14.47;61.87;95170.59;5068887;28;20506;-83
2022/04/27 00:38:07;;;;;;;7.50;2.05;;;;;;;14.60;61.57;95182.34;5080130;28;20449;-83
2022/04/27 00:40:32;;;;;;;6.80;2.40;;;;;;;14.01;61.41;95097.88;5090297;28;20119;-83
2022/04/27 00:42:58;;;;;;;6.72;2.20;;;;;;;13.76;61.95;95078.59;5080688;28;20032;-83
2022/04/27 00:45:24;;;;;;;8.38;2.33;;;;;;;14.28;61.82;95141.31;5082805;28;20028;-83
2022/04/27 00:47:49;;;;;;;7.13;2.05;;;;;;;13.58;62.25;95036.81;5073056;28;20044;-83
2022/04/27 00:50:15;;;;;;;10.27;2.40;;;;;;;14.13;62.13;95143.47;5091516;28;20494;-83
2022/04/27 00:52:41;;;;;;;3.08;2.17;;;;;;;13.38;62.90;95053.19;5091208;28;20124;-83
2022/04/27 00:55:06;;;;;;;6.82;2.55;;;;;;;13.40;62.92;95067.81;5090686;28;20075;-83
2022/04/27 00:57:33;;;;;;;3.70;2.53;;;;;;;14.27;62.90;95190.41;5091151;28;20032;-83
2022/04/27 00:59:59;;;;;;;5.28;2.33;;;;;;;14.12;63.26;95180.03;5091166;28;20092;-83
2022/04/27 01:02:24;;;;;;;8.73;2.50;;;;;;;13.83;62.74;95113.66;5072883;28;20028;-83
2022/04/27 01:04:50;;;;;;;11.93;2.63;;;;;;;13.75;63.06;95117.00;5072440;28;20053;-82
2022/04/27 01:07:17;;;;;;;5.93;2.05;;;;;;;14.33;62.87;95191.13;5072729;28;20040;-84
2022/04/27 01:09:42;;;;;;;4.53;2.55;;;;;;;13.49;62.54;95057.25;5068771;28;20152;-84
2022/04/27 01:12:09;;;;;;;5.93;2.55;;;;;;;13.90;63.34;95145.25;5076584;28;20115;-83
2022/04/27 01:14:45;;;;;;;5.30;2.80;;;;;;;13.71;63.39;95112.56;5083897;28;20611;-83
2022/04/27 01:17:11;;;;;;;10.13;3.22;;;;;;;13.87;63.31;95135.19;5070220;28;20520;-83
2022/04/27 01:19:37;;;;;;;11.88;3.97;;;;;;;14.26;63.23;95193.41;5081027;28;20036;-83
2022/04/27 01:22:04;;;;;;;11.77;3.78;;;;;;;13.83;63.73;95126.19;5072387;28;20052;-83
2022/04/27 01:24:30;;;;;;;10.00;3.75;;;;;;;13.58;63.18;95079.47;5071500;28;20188;-83
2022/04/27 01:26:56;;;;;;;9.68;4.30;;;;;;;14.31;62.59;95187.94;5076564;28;20455;-83
2022/04/27 01:29:22;;;;;;;10.77;4.35;;;;;;;14.07;63.24;95166.00;5069698;28;20447;-83
2022/04/27 01:31:49;;;;;;;11.68;4.15;;;;;;;14.07;63.51;95179.34;5071984;28;20042;-83
2022/04/27 01:34:15;;;;;;;9.07;3.95;;;;;;;13.83;62.92;95124.31;5091633;28;20036;-83
2022/04/27 01:36:41;;;;;;;10.55;4.43;;;;;;;14.32;62.72;95181.53;5089804;28;20040;-83
2022/04/27 01:39:06;;;;;;;13.27;4.32;;;;;;;13.49;63.07;95079.38;5070573;28;20474;-83
2022/04/27 01:41:33;;;;;;;7.25;4.05;;;;;;;14.35;62.78;95177.47;5074694;28;20046;-82
2022/04/27 01:43:59;;;;;;;10.75;4.53;;;;;;;14.38;62.14;95177.72;5090734;28;20057;-83
2022/04/27 01:46:25;;;;;;;8.95;4.05;;;;;;;14.29;62.54;95190.91;5084469;28;20032;-84
2022/04/27 01:48:50;;;;;;;12.70;3.85;;;;;;;13.61;62.20;95070.09;5070493;28;20024;-84
2022/04/27 01:51:18;;;;;;;11.05;4.00;;;;;;;14.07;62.73;95147.34;5089671;28;20120;-83
2022/04/27 01:56:27;;;;;;;6.78;3.45;;;;;;;13.57;62.62;95090.44;5089975;28;20184;-84
2022/04/27 01:58:54;;;;;;;8.73;3.40;;;;;;;13.30;63.17;95053.88;5071984;28;20069;-84
2022/04/27 02:01:21;;;;;;;6.28;3.00;;;;;;;12.83;63.41;94989.13;5090954;28;20067;-84
2022/04/27 02:03:47;;;;;;;7.60;3.40;;;;;;;13.98;63.60;95170.44;5072325;28;20024;-84
2022/04/27 02:06:16;;;;;;;14.00;3.58;;;;;;;12.60;63.82;94961.56;5070578;28;20043;-84
2022/04/27 02:08:42;;;;;;;7.80;3.20;;;;;;;13.50;63.27;95096.16;5072154;28;20031;-83
2022/04/27 02:11:08;;;;;;;7.78;2.83;;;;;;;14.03;63.13;95167.69;5090359;28;20028;-84
2022/04/27 02:13:33;;;;;;;12.40;3.38;;;;;;;13.83;63.43;95148.31;5072387;28;20035;-84
2022/04/27 02:16:01;;;;;;;7.60;3.30;;;;;;;13.12;63.72;95055.50;5085137;28;20046;-84
2022/04/27 02:18:27;;;;;;;12.55;3.53;;;;;;;13.02;63.45;95037.81;5035611;28;20044;-83
2022/04/27 02:20:52;;;;;;;8.13;3.33;;;;;;;13.62;63.25;95114.31;5070304;28;20561;-84
2022/04/27 02:23:20;;;;;;;6.40;2.95;;;;;;;12.92;63.48;95007.88;5039355;28;20126;-84
2022/04/27 02:25:46;;;;;;;7.55;3.50;;;;;;;13.30;63.39;95069.84;5039851;28;20067;-84
2022/04/27 02:28:12;;;;;;;6.75;3.30;;;;;;;13.11;63.99;95046.72;5049536;28;20021;-84
2022/04/27 02:30:37;;;;;;;6.68;3.05;;;;;;;14.00;63.60;95178.94;5049644;28;20047;-84
2022/04/27 02:33:02;;;;;;;6.95;2.90;;;;;;;12.98;63.74;95036.78;5048144;28;20048;-84
2022/04/27 02:35:28;;;;;;;8.60;3.33;;;;;;;13.87;64.03;95173.31;5049693;28;20449;-84
2022/04/27 02:37:53;;;;;;;14.10;3.10;;;;;;;13.17;64.30;95076.72;5048989;28;20049;-84
2022/04/27 02:40:19;;;;;;;5.75;2.95;;;;;;;13.84;63.95;95178.41;5028618;28;20071;-84
2022/04/27 02:42:44;;;;;;;6.20;3.08;;;;;;;13.86;63.85;95174.38;5029625;28;20056;-84
2022/04/27 02:45:10;;;;;;;3.78;2.38;;;;;;;13.09;64.03;95070.16;5049116;28;20094;-84
2022/04/27 02:47:36;;;;;;;10.68;3.28;;;;;;;13.22;64.51;95084.63;5043201;28;20021;-83
2022/04/27 02:52:47;;;;;;;4.13;2.22;;;;;;;13.11;63.75;95060.03;5049512;28;20043;-84
2022/04/27 02:55:13;;;;;;;5.65;2.75;;;;;;;13.33;64.00;95103.91;5048072;28;20029;-84
2022/04/27 02:57:38;;;;;;;5.55;2.97;;;;;;;12.98;64.16;95063.41;5047719;28;20029;-84
2022/04/27 03:00:05;;;;;;;7.80;3.00;;;;;;;13.58;64.71;95178.03;5047742;28;20099;-83
2022/04/27 03:02:30;;;;;;;8.73;2.50;;;;;;;12.92;65.53;95109.81;5049288;28;20033;-84
2022/04/27 03:04:55;;;;;;;8.27;2.72;;;;;;;12.42;65.18;94996.97;5047805;28;20029;-84
2022/04/27 03:07:21;;;;;;;10.25;3.05;;;;;;;10.40;64.91;94692.47;5047396;28;20032;-83
2022/04/27 03:09:47;;;;;;;8.75;3.42;;;;;;;13.30;65.33;95158.53;5048565;28;20033;-83
2022/04/27 03:12:12;;;;;;;7.28;2.72;;;;;;;12.99;66.04;95128.88;5047531;28;20041;-82
2022/04/27 03:14:38;;;;;;;4.00;2.45;;;;;;;13.37;65.94;95174.94;5048817;28;20033;-83
2022/04/27 03:17:04;;;;;;;3.70;2.35;;;;;;;12.87;65.68;95115.22;5049417;28;20130;-83
2022/04/27 03:19:29;;;;;;;8.18;2.85;;;;;;;12.91;66.09;95131.41;5044170;28;20036;-82
2022/04/27 03:21:55;;;;;;;7.75;2.92;;;;;;;12.60;65.72;95070.63;5037424;28;20549;-82
2022/04/27 03:24:20;;;;;;;6.75;2.65;;;;;;;12.32;65.88;95052.97;5074842;28;20036;-83
2022/04/27 03:26:47;;;;;;;9.05;2.35;;;;;;;12.03;65.74;94997.25;5070117;28;20047;-83
2022/04/27 03:29:15;;;;;;;9.68;2.42;;;;;;;12.54;65.77;95071.00;5061290;28;20270;-83
2022/04/27 03:31:41;;;;;;;5.60;3.42;;;;;;;13.13;66.73;95195.53;5078756;28;20028;-83
2022/04/27 03:34:07;;;;;;;10.07;3.20;;;;;;;11.78;66.61;95011.66;5088864;28;20032;-83
2022/04/27 03:36:32;;;;;;;11.00;3.20;;;;;;;11.79;66.15;94970.75;5075871;28;20080;-83
2022/04/27 03:38:59;;;;;;;9.35;3.60;;;;;;;12.22;66.28;95048.56;5063309;28;20032;-83
2022/04/27 03:41:26;;;;;;;9.80;3.50;;;;;;;12.57;66.61;95113.00;5088550;28;20115;-83
2022/04/27 03:43:51;;;;;;;8.48;3.83;;;;;;;13.19;66.37;95205.06;5072618;28;20036;-83
2022/04/27 03:46:19;;;;;;;10.95;3.92;;;;;;;12.93;66.34;95174.50;5068850;28;20460;-83
2022/04/27 03:48:46;;;;;;;13.82;4.13;;;;;;;12.74;66.04;95131.91;5068676;28;20035;-83
2022/04/27 03:51:12;;;;;;;8.43;3.70;;;;;;;12.68;66.18;95109.09;5066376;28;20064;-83
2022/04/27 03:53:37;;;;;;;15.07;4.57;;;;;;;12.65;65.51;95104.38;5056608;28;20528;-83
2022/04/27 03:56:03;;;;;;;15.40;4.50;;;;;;;13.35;65.65;95214.38;5087910;28;20075;-83
2022/04/27 03:58:28;;;;;;;20.95;4.55;;;;;;;11.72;66.37;95004.00;5054079;28;20443;-84
2022/04/27 04:00:53;;;;;;;14.93;4.70;;;;;;;13.00;65.94;95188.25;5065628;28;20552;-84
2022/04/27 04:03:19;;;;;;;13.95;5.05;;;;;;;12.93;66.21;95188.59;5084236;28;20042;-84
2022/04/27 04:05:44;;;;;;;20.00;4.95;;;;;;;12.49;65.92;95121.63;5072825;28;20039;-84
2022/04/27 04:08:10;;;;;;;18.95;5.53;;;;;;;12.37;65.65;95095.44;5089548;28;20039;-84
2022/04/27 04:10:36;;;;;;;21.90;5.18;;;;;;;12.98;65.55;95180.53;5091418;28;20028;-84
2022/04/27 04:13:02;;;;;;;18.13;4.53;;;;;;;12.44;65.50;95117.16;5073889;28;20044;-84
2022/04/27 04:15:28;;;;;;;16.23;5.45;;;;;;;13.06;65.21;95203.84;5063787;28;20031;-84
2022/04/27 04:17:54;;;;;;;17.17;4.90;;;;;;;12.94;65.00;95176.09;5072510;28;20028;-84
2022/04/27 04:20:20;;;;;;;20.65;4.72;;;;;;;13.06;65.06;95209.19;5068164;28;20048;-84
2022/04/27 04:22:46;;;;;;;28.77;6.35;;;;;;;12.56;64.50;95127.38;5058109;28;20430;-84
2022/04/27 04:30:42;;;;;;;22.60;5.30;;;;;;;12.22;65.51;95085.78;5073677;28;20555;-82
2022/04/27 04:33:07;;;;;;;21.38;5.72;;;;;;;12.46;65.30;95085.75;5052196;28;20055;-82
2022/04/27 04:35:33;;;;;;;25.02;7.03;;;;;;;12.25;65.49;95071.94;5078895;28;20063;-82
2022/04/27 04:37:59;;;;;;;22.80;7.10;;;;;;;13.39;65.29;95259.88;5066537;28;20036;-82
2022/04/27 04:40:25;;;;;;;29.70;7.88;;;;;;;12.18;65.53;95091.97;5079442;28;20507;-82
2022/04/27 04:42:50;;;;;;;24.58;7.95;;;;;;;12.01;65.71;95094.28;5079071;28;20294;-82
2022/04/27 04:45:16;;;;;;;36.38;8.98;;;;;;;12.97;65.43;95184.28;5072517;28;20040;-82
2022/04/27 04:47:42;;;;;;;26.33;8.50;;;;;;;12.08;65.32;95092.88;5076857;28;20039;-82
2022/04/27 04:50:09;;;;;;;16.58;7.35;;;;;;;13.42;65.16;95265.44;5056582;28;20173;-82
2022/04/27 04:52:35;;;;;;;28.83;7.75;;;;;;;12.95;64.81;95181.13;5056966;28;20024;-82
2022/04/27 04:55:00;;;;;;;30.48;8.52;;;;;;;13.19;64.52;95199.72;5058895;28;20867;-82
2022/04/27 04:57:26;;;;;;;28.98;8.18;;;;;;;12.37;64.47;95100.75;5076753;28;20032;-82
2022/04/27 04:59:51;;;;;;;27.08;9.05;;;;;;;13.20;64.85;95240.47;5059468;28;20032;-82
2022/04/27 05:02:17;;;;;;;28.92;8.13;;;;;;;13.43;64.98;95269.66;5049560;28;20028;-82
2022/04/27 05:04:42;;;;;;;39.70;7.95;;;;;;;13.11;65.19;95230.44;5055153;28;20468;-82
2022/04/27 05:07:08;;;;;;;28.40;8.88;;;;;;;13.65;64.79;95284.28;5072444;28;20028;-82
2022/04/27 05:09:33;;;;;;;26.45;8.20;;;;;;;12.75;64.97;95152.91;5075331;28;20055;-82
2022/04/27 05:11:58;;;;;;;22.45;8.02;;;;;;;12.94;64.85;95168.91;5075597;28;20376;-82
2022/04/27 05:14:24;;;;;;;25.05;9.05;;;;;;;13.42;64.72;95222.03;5066588;28;20065;-82
2022/04/27 05:16:49;;;;;;;20.65;7.50;;;;;;;13.89;64.47;95296.41;5073374;28;20419;-84
2022/04/27 05:19:15;;;;;;;23.30;7.15;;;;;;;13.56;64.72;95216.75;5050938;28;20035;-84
2022/04/27 05:21:40;;;;;;;21.35;6.65;;;;;;;13.30;64.27;95166.50;5054833;28;20047;-84
2022/04/27 05:24:06;;;;;;;20.73;7.07;;;;;;;13.48;64.28;95199.53;5072409;28;20114;-84
2022/04/27 05:26:31;;;;;;;21.00;6.80;;;;;;;13.83;63.62;95228.28;5076746;28;20092;-84
2022/04/27 05:31:55;;;;;;;13.68;6.05;;;;;;;13.46;63.90;95161.75;5027675;28;20474;-83
2022/04/27 05:34:30;;;;;;;11.00;5.20;;;;;;;14.12;63.83;95270.69;5055550;28;21065;-84
2022/04/27 05:36:57;;;;;;;15.50;5.38;;;;;;;14.39;63.50;95278.00;5054369;28;20194;-83
2022/04/27 05:39:22;;;;;;;16.10;5.97;;;;;;;14.36;63.62;95277.75;5069855;28;20063;-83
2022/04/27 05:41:55;;;;;;;19.33;5.25;;;;;;;14.26;63.24;95268.09;5054480;28;20040;-83
2022/04/27 05:44:25;;;;;;;11.27;4.65;;;;;;;13.81;63.12;95168.31;5053512;28;20036;-83
2022/04/27 05:46:53;;;;;;;14.48;5.53;;;;;;;14.41;63.50;95286.53;5072212;28;20039;-83
2022/04/27 05:49:20;;;;;;;29.50;8.30;;;;;;;14.52;63.45;95287.09;5056319;28;20028;-83
2022/04/27 05:51:46;;;;;;;18.23;5.75;;;;;;;13.47;63.59;95137.47;5072719;28;20261;-83
2022/04/27 05:54:15;;;;;;;15.75;5.90;;;;;;;13.74;64.13;95222.03;5049588;28;20128;-83
2022/04/27 05:56:41;;;;;;;19.00;6.72;;;;;;;13.79;64.35;95232.63;5065741;28;20166;-83
2022/04/27 05:59:07;;;;;;;31.25;8.85;;;;;;;13.59;64.87;95206.28;5071296;28;20425;-82
2022/04/27 06:01:33;;;;;;;24.55;7.15;;;;;;;13.78;64.03;95196.38;5053486;28;20066;-83
2022/04/27 06:03:59;;;;;;;20.38;7.50;;;;;;;13.96;63.64;95196.63;5072202;28;20043;-83
2022/04/27 06:06:24;;;;;;;19.95;8.90;;;;;;;14.01;62.82;95204.53;5069196;28;20040;-82
2022/04/27 06:08:50;;;;;;;20.58;7.90;;;;;;;14.60;62.71;95291.75;5072263;28;20263;-83
2022/04/27 06:11:16;;;;;;;21.35;8.75;;;;;;;14.08;62.81;95204.94;5064392;28;20044;-83
2022/04/27 06:13:42;;;;;;;28.92;9.23;;;;;;;13.59;63.08;95154.84;5076096;28;20032;-83
2022/04/27 06:16:08;;;;;;;22.20;8.38;;;;;;;13.94;62.64;95204.91;5054399;28;20108;-83
2022/04/27 06:18:33;;;;;;;17.35;8.18;;;;;;;14.35;63.23;95278.84;5056431;28;20036;-83
2022/04/27 06:20:59;;;;;;;22.80;7.57;;;;;;;13.65;63.20;95183.81;5061810;28;20032;-83
2022/04/27 06:23:25;;;;;;;14.43;7.32;;;;;;;14.48;62.87;95280.78;5066046;28;20182;-83
2022/04/27 06:25:51;;;;;;;19.15;5.97;;;;;;;13.64;62.72;95130.81;5069502;28;20154;-83
2022/04/27 06:28:16;;;;;;;14.95;6.75;;;;;;;14.21;62.39;95201.47;5073153;28;20511;-83
2022/04/27 06:30:42;;;;;;;17.65;7.30;;;;;;;14.28;62.26;95202.66;5068973;28;20129;-83
2022/04/27 06:33:08;;;;;;;15.95;7.22;;;;;;;14.17;61.53;95184.50;5066512;28;20043;-83
2022/04/27 06:35:34;;;;;;;19.08;7.28;;;;;;;14.77;62.19;95278.63;5054520;28;20096;-83
2022/04/27 06:37:59;;;;;;;11.45;5.22;;;;;;;13.79;62.02;95142.00;5071232;28;20630;-83
2022/04/27 06:40:25;;;;;;;21.40;5.50;;;;;;;14.49;61.70;95218.34;5052795;28;20331;-83
2022/04/27 06:42:52;;;;;;;9.02;5.93;;;;;;;14.48;61.75;95212.22;5049899;28;20314;-83
2022/04/27 06:45:17;;;;;;;16.73;6.05;;;;;;;14.52;61.21;95197.16;5048186;28;20036;-83
2022/04/27 06:47:43;;;;;;;25.38;6.50;;;;;;;13.75;61.17;95060.22;5054831;28;20342;-83
2022/04/27 06:50:12;;;;;;;11.32;6.18;;;;;;;15.07;61.56;95280.69;5058362;28;20100;-82
2022/04/27 06:52:42;;;;;;;15.70;7.00;;;;;;;14.20;61.25;95126.00;5074753;28;20032;-83
2022/04/27 06:55:09;;;;;;;16.33;6.97;;;;;;;14.44;61.27;95175.72;5073678;28;20036;-83
2022/04/27 06:57:34;;;;;;;13.25;6.63;;;;;;;15.24;61.17;95279.28;5071745;28;20502;-83
2022/04/27 06:59:59;;;;;;;20.02;8.00;;;;;;;14.56;61.29;95179.50;5072999;28;20069;-82
2022/04/27 07:02:25;;;;;;;23.95;6.82;;;;;;;14.49;61.60;95173.75;5066074;28;20036;-83
2022/04/27 07:04:55;;;;;;;17.67;6.53;;;;;;;15.21;61.39;95280.66;5070377;28;20063;-83
2022/04/27 07:07:21;;;;;;;12.75;6.72;;;;;;;14.46;61.09;95138.88;5058203;28;20181;-83
2022/04/27 07:09:47;;;;;;;13.23;6.80;;;;;;;14.85;61.24;95223.75;5054143;28;20036;-83
2022/04/27 07:12:13;;;;;;;12.63;6.28;;;;;;;14.94;60.61;95198.72;5072152;28;20583;-83
2022/04/27 07:14:38;;;;;;;16.58;7.20;;;;;;;15.03;61.77;95244.16;5069147;28;20032;-83
2022/04/27 07:17:04;;;;;;;22.98;6.97;;;;;;;14.60;61.77;95183.13;5051390;28;20063;-83
2022/04/27 07:19:30;;;;;;;13.07;7.30;;;;;;;14.68;61.71;95195.78;5071796;28;20039;-83
2022/04/27 07:21:55;;;;;;;13.30;6.72;;;;;;;15.02;61.55;95250.63;5072931;28;20097;-83
2022/04/27 07:24:20;;;;;;;11.60;6.25;;;;;;;14.12;61.47;95091.22;5068070;28;20043;-83
2022/04/27 07:26:46;;;;;;;16.13;7.22;;;;;;;14.99;61.66;95219.97;5063782;28;20084;-83
2022/04/27 07:29:12;;;;;;;11.40;5.60;;;;;;;15.63;61.19;95286.72;5050852;28;20343;-83
2022/04/27 07:31:37;;;;;;;24.05;6.57;;;;;;;15.51;61.27;95278.41;5053886;28;21284;-84
2022/04/27 07:34:03;;;;;;;17.17;7.05;;;;;;;14.29;61.52;95097.53;5067207;28;20055;-83
2022/04/27 07:36:28;;;;;;;13.18;6.43;;;;;;;15.40;61.04;95248.47;5073598;28;20119;-83
2022/04/27 07:38:54;;;;;;;19.83;7.57;;;;;;;15.45;60.76;95219.75;5072673;28;20549;-83
2022/04/27 07:41:19;;;;;;;15.27;6.53;;;;;;;15.65;61.96;95226.50;5050553;28;20472;-83
2022/04/27 07:43:44;;;;;;;14.55;6.90;;;;;;;15.40;60.46;95187.00;5067193;28;20031;-83
2022/04/27 07:46:11;;;;;;;12.90;7.22;;;;;;;15.77;60.08;95210.72;5076156;28;20135;-83
2022/04/27 07:48:37;;;;;;;17.15;7.75;;;;;;;16.23;59.84;95276.47;5057502;28;20028;-82
2022/04/27 07:51:05;;;;;;;19.58;6.90;;;;;;;16.01;59.64;95222.97;5067968;28;20046;-82
2022/04/27 07:53:30;;;;;;;10.88;6.45;;;;;;;16.52;59.60;95273.28;5055510;28;20032;-82
2022/04/27 07:55:56;;;;;;;14.18;6.53;;;;;;;16.38;59.57;95240.47;5070959;28;20415;-82
2022/04/27 07:58:24;;;;;;;13.25;6.65;;;;;;;16.65;59.15;95271.63;5072578;28;20107;-83
2022/04/27 08:00:50;;;;;;;17.65;6.28;;;;;;;15.63;59.19;95137.81;5068595;28;20089;-83
2022/04/27 08:03:15;;;;;;;13.57;6.57;;;;;;;15.20;59.67;95070.69;5072260;28;20024;-82
2022/04/27 08:06:31;;;;;;;16.40;6.45;;;;;;;16.54;60.05;95271.09;5020120;28;20032;-83
2022/04/27 08:08:57;;;;;;;15.43;6.60;;;;;;;15.95;60.05;95162.66;5033099;28;20028;-84
2022/04/27 08:11:23;;;;;;;13.85;5.88;;;;;;;16.47;58.50;95260.84;5052752;28;20037;-83
2022/04/27 08:13:48;;;;;;;22.85;6.47;;;;;;;15.91;58.01;95145.66;5053395;28;20485;-83
2022/04/27 08:16:14;;;;;;;9.77;6.10;;;;;;;16.63;58.00;95255.13;5070604;28;20028;-84
2022/04/27 08:18:39;;;;;;;13.57;6.50;;;;;;;15.70;58.09;95095.41;5072144;28;20119;-83
2022/04/27 08:21:14;;;;;;;21.30;7.68;;;;;;;16.55;58.05;95203.09;5076597;28;20028;-82
2022/04/27 08:23:40;;;;;;;18.10;6.00;;;;;;;16.81;57.55;95252.16;5049851;28;20045;-82
2022/04/27 08:26:15;;;;;;;12.35;6.35;;;;;;;16.64;56.48;95206.59;5075022;28;20036;-81
2022/04/27 08:28:41;;;;;;;13.05;5.85;;;;;;;16.55;57.21;95197.72;5051342;28;20024;-81
2022/04/27 08:31:08;;;;;;;12.05;6.25;;;;;;;16.42;56.88;95137.03;5073156;28;20024;-81
2022/04/27 08:33:34;;;;;;;15.40;6.55;;;;;;;17.00;57.76;95202.91;5066348;28;20601;-83
2022/04/27 08:36:03;;;;;;;14.70;5.95;;;;;;;16.88;57.61;95166.00;5056120;28;20036;-82
2022/04/27 08:38:30;;;;;;;19.08;6.68;;;;;;;17.32;55.75;95238.06;5062497;28;20044;-82
2022/04/27 08:40:55;;;;;;;15.85;5.18;;;;;;;17.51;55.83;95253.09;5057667;28;20494;-82
2022/04/27 08:43:22;;;;;;;14.40;5.78;;;;;;;17.00;57.65;95160.03;5057185;28;20028;-83
2022/04/27 08:45:48;;;;;;;12.25;5.13;;;;;;;17.22;55.90;95202.78;5074415;28;20077;-82
2022/04/27 08:48:17;;;;;;;13.27;5.70;;;;;;;16.66;56.24;95088.47;5059599;28;20360;-82
2022/04/27 08:50:44;;;;;;;15.40;5.60;;;;;;;17.33;54.49;95169.97;5069957;28;20039;-81
2022/04/27 08:53:10;;;;;;;15.27;5.03;;;;;;;17.22;53.75;95170.63;5045911;28;20027;-81
2022/04/27 08:55:37;;;;;;;13.85;6.25;;;;;;;17.16;55.01;95137.84;5060097;28;20545;-82
2022/04/27 08:58:09;;;;;;;11.02;5.32;;;;;;;17.72;54.51;95236.06;5075503;28;20075;-82
2022/04/27 09:00:36;;;;;;;9.15;5.47;;;;;;;17.82;54.08;95226.13;5072626;28;20379;-82
2022/04/27 09:03:21;;;;;;;10.43;5.13;;;;;;;17.90;56.34;95226.13;5071432;28;20481;-82
2022/04/27 09:05:51;;;;;;;13.48;4.95;;;;;;;17.88;54.54;95201.50;5071004;28;20105;-83
2022/04/27 09:08:16;;;;;;;14.30;5.38;;;;;;;17.40;53.79;95115.09;5054630;28;20060;-83
2022/04/27 09:10:42;;;;;;;12.88;5.28;;;;;;;17.59;54.88;95134.31;5071889;28;20511;-82
2022/04/27 09:13:08;;;;;;;13.88;6.45;;;;;;;18.11;53.94;95213.59;5059653;28;20466;-82
2022/04/27 09:15:33;;;;;;;17.10;5.45;;;;;;;16.97;52.53;95014.09;5073118;28;20226;-82
2022/04/27 09:20:54;;;;;;;8.43;5.10;;;;;;;18.35;51.51;95186.22;5073499;28;20443;-82
2022/04/27 09:23:21;;;;;;;10.35;5.00;;;;;;;18.62;53.91;95206.50;5059086;28;20052;-81
2022/04/27 09:25:47;;;;;;;18.45;5.78;;;;;;;18.39;53.29;95156.81;5055889;28;20063;-82
2022/04/27 09:28:13;;;;;;;21.98;5.95;;;;;;;18.16;52.34;95107.19;5066374;28;20105;-81
2022/04/27 09:30:38;;;;;;;13.38;5.57;;;;;;;18.26;52.43;95126.41;5067098;28;20043;-81
2022/04/27 09:33:07;;;;;;;11.55;5.47;;;;;;;18.31;51.46;95128.88;5057230;28;20328;-82
2022/04/27 09:35:36;;;;;;;14.45;5.78;;;;;;;18.65;51.75;95162.09;5056028;28;20509;-81
2022/04/27 09:38:15;;;;;;;13.27;4.85;;;;;;;18.99;49.81;95193.34;5061013;28;20036;-81
2022/04/27 09:40:45;;;;;;;11.00;5.22;;;;;;;19.02;50.42;95190.00;5079149;28;20088;-81
2022/04/27 09:43:13;;;;;;;12.03;5.47;;;;;;;18.98;51.10;95183.72;5077906;28;20023;-81
2022/04/27 09:45:39;;;;;;;12.65;6.38;;;;;;;18.80;51.73;95126.59;5053329;28;20506;-82
2022/04/27 09:48:05;;;;;;;15.15;4.80;;;;;;;18.89;51.34;95103.94;5077081;28;20028;-81
2022/04/27 09:50:58;;;;;;;8.27;4.13;;;;;;;20.18;47.62;95182.69;5079919;28;20043;-82
2022/04/27 09:53:25;;;;;;;13.50;4.18;;;;;;;20.15;42.64;95081.03;5079358;28;20437;-81
2022/04/27 09:55:52;;;;;;;16.42;4.55;;;;;;;21.48;42.62;95131.31;5057401;28;20080;-81
2022/04/27 09:58:21;;;;;;;22.23;5.10;;;;;;;21.71;41.62;94995.81;5076033;28;20119;-81
2022/04/27 10:00:52;;;;;;;15.20;3.75;;;;;;;22.80;37.61;95007.63;5073779;28;20032;-82
2022/04/27 10:03:22;;;;;;;11.33;3.33;;;;;;;24.84;37.24;95157.97;5079597;28;20031;-82
2022/04/27 10:05:50;;;;;;;14.48;4.18;;;;;;;25.12;36.57;95155.69;5081039;28;20028;-83
2022/04/27 10:08:20;;;;;;;12.57;3.72;;;;;;;26.03;35.98;95170.81;5059885;28;20032;-81
2022/04/27 10:10:47;;;;;;;18.45;4.25;;;;;;;26.83;32.21;95171.97;5080550;28;20139;-82
2022/04/27 10:13:15;;;;;;;10.82;4.45;;;;;;;26.40;32.93;95111.78;5060762;28;20184;-82
2022/04/27 10:15:52;;;;;;;16.83;11.18;;;;;;;25.51;33.94;94976.22;5080939;28;20027;-82
2022/04/27 10:18:19;;;;;;;21.02;9.60;;;;;;;25.80;32.62;95015.31;5086470;28;20024;-82
2022/04/27 10:20:48;;;;;;;22.83;5.63;;;;;;;25.23;32.09;94868.94;5064039;28;20468;-81
2022/04/27 10:23:20;;;;;;;25.75;11.77;;;;;;;28.00;30.76;95159.00;5080136;28;20161;-80
2022/04/27 10:26:15;;;;;;;15.60;7.20;;;;;;;28.36;30.61;95160.69;5077831;28;20067;-83
2022/04/27 10:28:43;;;;;;;15.35;3.63;;;;;;;28.40;28.57;95155.22;5052543;28;20334;-83
2022/04/27 10:31:09;;;;;;;12.68;3.40;;;;;;;27.78;28.34;95021.91;5072100;28;20550;-83
2022/04/27 10:33:47;;;;;;;10.82;3.10;;;;;;;28.77;27.91;95155.66;5060125;28;20505;-84
2022/04/27 10:36:28;;;;;;;13.30;2.95;;;;;;;28.04;29.39;95065.19;5077979;28;20329;-83
2022/04/27 10:39:12;;;;;;;;;;;;;;;28.52;29.67;95143.19;5057793;28;20036;-84
2022/04/27 10:41:57;;;;;;;10.35;4.90;;;;;;;29.11;28.39;95128.72;5075600;28;19923;-84
2022/04/27 10:44:48;;;;;;;10.05;3.80;;;;;;;28.95;28.88;95133.03;5055841;28;20241;-84
2022/04/27 10:47:15;;;;;;;9.40;3.70;;;;;;;28.68;27.37;95081.59;5056887;28;20816;-84
2022/04/27 10:49:40;;;;;;;9.85;3.00;;;;;;;28.75;28.62;95062.50;5057390;28;20282;-84
2022/04/27 10:52:08;;;;;;;12.00;3.20;;;;;;;29.22;26.01;95089.72;5059882;28;20034;-84
2022/04/27 10:54:39;;;;;;;8.00;3.72;;;;;;;29.22;28.36;95127.94;5057856;28;20048;-84
2022/04/27 10:57:16;;;;;;;15.10;4.57;;;;;;;28.98;27.66;95037.50;5072191;28;20037;-84
2022/04/27 11:00:02;;;;;;;8.98;3.17;;;;;;;28.25;27.46;94925.38;5073751;28;20858;-84
2022/04/27 11:02:32;;;;;;;8.43;3.40;;;;;;;29.46;26.88;95103.28;5059247;28;20067;-84
2022/04/27 11:04:57;;;;;;;8.10;2.50;;;;;;;28.73;27.27;94984.91;5053326;28;20168;-84
2022/04/27 11:07:40;;;;;;;12.68;2.90;;;;;;;29.09;28.14;95026.53;5074840;28;20036;-85
2022/04/27 11:10:17;;;;;;;10.88;3.13;;;;;;;29.47;28.45;95063.09;5077026;28;20031;-84
2022/04/27 11:12:55;;;;;;;8.82;2.78;;;;;;;29.52;29.69;95062.69;5058837;28;20050;-84
2022/04/27 11:15:25;;;;;;;6.40;2.50;;;;;;;29.92;28.53;95083.16;5055440;28;20617;-84
2022/04/27 11:17:56;;;;;;;13.18;3.25;;;;;;;29.59;28.16;94994.34;5073523;28;20441;-85
2022/04/27 11:20:25;;;;;;;9.75;2.50;;;;;;;29.82;27.36;95012.94;5071730;28;20533;-85
2022/04/27 11:22:50;;;;;;;8.55;2.22;;;;;;;30.29;25.41;95069.66;5056061;28;20458;-85
2022/04/27 11:25:30;;;;;;;10.10;3.00;;;;;;;28.67;26.74;94861.75;5060746;28;20177;-85
2022/04/27 11:27:57;;;;;;;6.60;2.70;;;;;;;29.15;26.72;94910.25;5054018;28;20036;-84
2022/04/27 11:30:23;;;;;;;10.05;2.55;;;;;;;29.38;28.44;95028.00;5058155;28;20580;-85
2022/04/27 11:32:50;;;;;;;11.30;4.20;;;;;;;29.01;27.33;94893.97;5072984;28;20028;-84
2022/04/27 11:35:16;;;;;;;13.05;2.70;;;;;;;29.86;25.52;94972.69;5072046;28;20043;-84
2022/04/27 11:37:42;;;;;;;7.53;2.42;;;;;;;30.86;25.29;95050.03;5075569;28;20032;-84
2022/04/27 11:40:15;;;;;;;12.63;2.90;;;;;;;30.54;27.00;95058.53;5077348;28;20030;-84
2022/04/27 11:42:46;;;;;;;9.68;2.58;;;;;;;30.88;26.97;95050.41;5056401;28;20032;-85
2022/04/27 11:45:17;;;;;;;5.80;2.28;;;;;;;29.83;27.32;94981.69;5064998;28;20048;-85
2022/04/27 11:47:42;;;;;;;8.75;3.22;;;;;;;30.58;26.92;95018.25;5065310;28;20093;-85